Camroden, New York
Current Conditions -  °F | °C
As of 6:53 PM on Friday 19 Dec 2014 (Local Time) from KRME Reporting Station
Overcast Overcast  
Wind Chill: 15°   Ceiling: 1800
Heat Index: 25°   Visibility: 10mi
Dew Point: 20°   Wind: 10mph
Humidity: 81%   Direction: 320°NW
Pressure: 30.22"   Gusts: NA
Location:  43.2466°N, 75.4624°W
Report Text: KRME 192353Z 32009KT 10SM OVC018 M04/M07 A3022 RMK AO2 SLP240 T10391067 11033 21039 53020
Loading
Personal Weather Stations






























Interactive Weather Map New forecast layout! Learn more

10-Day Weather Forecast

Advertisements
Track Severe Weather on mobile